sensor_id;sensor_type;location;lat;lon;timestamp;P1;durP1;ratioP1;P2;durP2;ratioP2
19830;SDS011;10076;52.008;4.708;2023-05-10T00:01:15;22.20;;;8.85;;
19830;SDS011;10076;52.008;4.708;2023-05-10T00:03:40;21.05;;;8.75;;
19830;SDS011;10076;52.008;4.708;2023-05-10T00:06:06;17.85;;;8.93;;
19830;SDS011;10076;52.008;4.708;2023-05-10T00:08:31;22.73;;;9.43;;
19830;SDS011;10076;52.008;4.708;2023-05-10T00:10:56;17.70;;;8.23;;
19830;SDS011;10076;52.008;4.708;2023-05-10T00:13:21;20.80;;;8.30;;
19830;SDS011;10076;52.008;4.708;2023-05-10T00:15:47;24.55;;;9.45;;
19830;SDS011;10076;52.008;4.708;2023-05-10T00:18:12;18.98;;;8.40;;
19830;SDS011;10076;52.008;4.708;2023-05-10T00:20:37;22.63;;;9.05;;
19830;SDS011;10076;52.008;4.708;2023-05-10T00:23:03;20.40;;;8.98;;
19830;SDS011;10076;52.008;4.708;2023-05-10T00:25:28;22.02;;;9.95;;
19830;SDS011;10076;52.008;4.708;2023-05-10T00:27:53;22.50;;;8.25;;
19830;SDS011;10076;52.008;4.708;2023-05-10T00:30:20;21.08;;;9.70;;
19830;SDS011;10076;52.008;4.708;2023-05-10T00:32:45;25.20;;;9.40;;
19830;SDS011;10076;52.008;4.708;2023-05-10T00:35:13;21.67;;;8.55;;
19830;SDS011;10076;52.008;4.708;2023-05-10T00:37:38;22.05;;;9.02;;
19830;SDS011;10076;52.008;4.708;2023-05-10T00:40:03;21.65;;;9.90;;
19830;SDS011;10076;52.008;4.708;2023-05-10T00:42:29;24.45;;;9.80;;
19830;SDS011;10076;52.008;4.708;2023-05-10T00:44:55;20.02;;;8.20;;
19830;SDS011;10076;52.008;4.708;2023-05-10T00:47:21;24.70;;;9.60;;
19830;SDS011;10076;52.008;4.708;2023-05-10T00:49:47;23.50;;;10.25;;
19830;SDS011;10076;52.008;4.708;2023-05-10T00:52:12;20.80;;;9.55;;
19830;SDS011;10076;52.008;4.708;2023-05-10T00:54:38;21.58;;;9.32;;
19830;SDS011;10076;52.008;4.708;2023-05-10T00:57:03;24.95;;;10.45;;
19830;SDS011;10076;52.008;4.708;2023-05-10T00:59:29;24.67;;;11.18;;
19830;SDS011;10076;52.008;4.708;2023-05-10T01:01:54;31.83;;;11.45;;
19830;SDS011;10076;52.008;4.708;2023-05-10T01:04:20;24.63;;;10.05;;
19830;SDS011;10076;52.008;4.708;2023-05-10T01:06:50;26.77;;;10.55;;
19830;SDS011;10076;52.008;4.708;2023-05-10T01:09:19;32.35;;;12.38;;
19830;SDS011;10076;52.008;4.708;2023-05-10T01:11:45;27.08;;;11.02;;
19830;SDS011;10076;52.008;4.708;2023-05-10T01:14:11;25.90;;;11.93;;
19830;SDS011;10076;52.008;4.708;2023-05-10T01:16:37;31.52;;;12.02;;
19830;SDS011;10076;52.008;4.708;2023-05-10T01:19:04;30.98;;;10.75;;
19830;SDS011;10076;52.008;4.708;2023-05-10T01:21:56;30.23;;;11.07;;
19830;SDS011;10076;52.008;4.708;2023-05-10T01:27:25;36.00;;;12.00;;
19830;SDS011;10076;52.008;4.708;2023-05-10T01:30:21;34.65;;;12.20;;
19830;SDS011;10076;52.008;4.708;2023-05-10T01:39:25;30.42;;;11.32;;
19830;SDS011;10076;52.008;4.708;2023-05-10T01:43:54;32.45;;;11.98;;
19830;SDS011;10076;52.008;4.708;2023-05-10T01:46:22;33.67;;;12.93;;
19830;SDS011;10076;52.008;4.708;2023-05-10T01:48:52;33.87;;;11.47;;
19830;SDS011;10076;52.008;4.708;2023-05-10T01:51:21;28.07;;;12.13;;
19830;SDS011;10076;52.008;4.708;2023-05-10T01:53:50;30.08;;;11.52;;
19830;SDS011;10076;52.008;4.708;2023-05-10T01:56:19;32.70;;;13.57;;
19830;SDS011;10076;52.008;4.708;2023-05-10T01:58:49;33.42;;;12.40;;
19830;SDS011;10076;52.008;4.708;2023-05-10T02:01:16;39.55;;;12.63;;
19830;SDS011;10076;52.008;4.708;2023-05-10T02:03:45;32.03;;;12.23;;
19830;SDS011;10076;52.008;4.708;2023-05-10T02:06:12;29.77;;;11.57;;
19830;SDS011;10076;52.008;4.708;2023-05-10T02:08:39;32.93;;;12.13;;
19830;SDS011;10076;52.008;4.708;2023-05-10T02:11:06;40.23;;;13.53;;
19830;SDS011;10076;52.008;4.708;2023-05-10T02:13:32;32.13;;;12.65;;
19830;SDS011;10076;52.008;4.708;2023-05-10T02:16:00;35.93;;;13.13;;
19830;SDS011;10076;52.008;4.708;2023-05-10T02:18:28;34.03;;;11.50;;
19830;SDS011;10076;52.008;4.708;2023-05-10T02:20:55;37.97;;;13.97;;
19830;SDS011;10076;52.008;4.708;2023-05-10T02:23:22;35.25;;;13.57;;
19830;SDS011;10076;52.008;4.708;2023-05-10T02:25:48;35.33;;;12.93;;
19830;SDS011;10076;52.008;4.708;2023-05-10T02:28:16;29.50;;;11.70;;
19830;SDS011;10076;52.008;4.708;2023-05-10T02:30:42;42.13;;;14.05;;
19830;SDS011;10076;52.008;4.708;2023-05-10T02:33:08;30.17;;;13.23;;
19830;SDS011;10076;52.008;4.708;2023-05-10T02:35:34;36.53;;;12.35;;
19830;SDS011;10076;52.008;4.708;2023-05-10T02:38:02;37.70;;;13.18;;
19830;SDS011;10076;52.008;4.708;2023-05-10T02:40:28;29.58;;;13.02;;
19830;SDS011;10076;52.008;4.708;2023-05-10T02:42:54;35.67;;;13.07;;
19830;SDS011;10076;52.008;4.708;2023-05-10T02:45:23;34.72;;;13.07;;
19830;SDS011;10076;52.008;4.708;2023-05-10T02:47:52;36.17;;;14.10;;
19830;SDS011;10076;52.008;4.708;2023-05-10T02:50:18;33.27;;;13.20;;
19830;SDS011;10076;52.008;4.708;2023-05-10T02:52:49;35.58;;;13.68;;
19830;SDS011;10076;52.008;4.708;2023-05-10T02:55:17;38.80;;;12.77;;
19830;SDS011;10076;52.008;4.708;2023-05-10T02:57:48;39.63;;;13.70;;
19830;SDS011;10076;52.008;4.708;2023-05-10T03:00:19;36.95;;;13.98;;
19830;SDS011;10076;52.008;4.708;2023-05-10T03:02:44;34.35;;;13.57;;
19830;SDS011;10076;52.008;4.708;2023-05-10T03:05:10;35.97;;;12.40;;
19830;SDS011;10076;52.008;4.708;2023-05-10T03:07:35;37.95;;;14.32;;
19830;SDS011;10076;52.008;4.708;2023-05-10T03:10:01;41.22;;;14.52;;
19830;SDS011;10076;52.008;4.708;2023-05-10T03:15:24;39.20;;;15.90;;
19830;SDS011;10076;52.008;4.708;2023-05-10T03:21:10;40.30;;;15.57;;
19830;SDS011;10076;52.008;4.708;2023-05-10T03:23:44;40.22;;;16.10;;
19830;SDS011;10076;52.008;4.708;2023-05-10T03:26:17;32.50;;;14.63;;
19830;SDS011;10076;52.008;4.708;2023-05-10T03:28:45;37.85;;;15.85;;
19830;SDS011;10076;52.008;4.708;2023-05-10T03:31:12;41.47;;;16.63;;
19830;SDS011;10076;52.008;4.708;2023-05-10T03:33:45;46.83;;;18.30;;
19830;SDS011;10076;52.008;4.708;2023-05-10T03:36:14;39.42;;;16.52;;
19830;SDS011;10076;52.008;4.708;2023-05-10T03:38:39;40.22;;;15.45;;
19830;SDS011;10076;52.008;4.708;2023-05-10T03:41:05;42.40;;;15.80;;
19830;SDS011;10076;52.008;4.708;2023-05-10T03:43:30;36.35;;;15.65;;
19830;SDS011;10076;52.008;4.708;2023-05-10T03:45:55;37.90;;;16.05;;
19830;SDS011;10076;52.008;4.708;2023-05-10T03:48:21;34.83;;;16.00;;
19830;SDS011;10076;52.008;4.708;2023-05-10T03:50:46;35.92;;;14.63;;
19830;SDS011;10076;52.008;4.708;2023-05-10T03:53:11;43.60;;;15.57;;
19830;SDS011;10076;52.008;4.708;2023-05-10T03:55:37;42.17;;;14.20;;
19830;SDS011;10076;52.008;4.708;2023-05-10T03:58:02;44.10;;;15.87;;
19830;SDS011;10076;52.008;4.708;2023-05-10T04:00:28;39.13;;;15.77;;
19830;SDS011;10076;52.008;4.708;2023-05-10T04:02:53;46.60;;;16.15;;
19830;SDS011;10076;52.008;4.708;2023-05-10T04:05:18;47.00;;;15.77;;
19830;SDS011;10076;52.008;4.708;2023-05-10T04:07:43;48.47;;;15.63;;
19830;SDS011;10076;52.008;4.708;2023-05-10T04:10:09;41.03;;;15.18;;
19830;SDS011;10076;52.008;4.708;2023-05-10T04:12:35;39.78;;;16.45;;
19830;SDS011;10076;52.008;4.708;2023-05-10T04:15:00;36.60;;;15.70;;
19830;SDS011;10076;52.008;4.708;2023-05-10T04:17:26;33.43;;;13.23;;
19830;SDS011;10076;52.008;4.708;2023-05-10T04:19:51;42.63;;;15.15;;
19830;SDS011;10076;52.008;4.708;2023-05-10T04:22:19;38.53;;;15.00;;
19830;SDS011;10076;52.008;4.708;2023-05-10T04:24:45;36.28;;;15.65;;
19830;SDS011;10076;52.008;4.708;2023-05-10T04:27:10;34.95;;;13.95;;
19830;SDS011;10076;52.008;4.708;2023-05-10T04:29:36;27.10;;;12.60;;
19830;SDS011;10076;52.008;4.708;2023-05-10T04:32:01;35.90;;;15.43;;
19830;SDS011;10076;52.008;4.708;2023-05-10T04:34:28;39.50;;;16.10;;
19830;SDS011;10076;52.008;4.708;2023-05-10T04:36:54;33.70;;;15.05;;
19830;SDS011;10076;52.008;4.708;2023-05-10T04:39:19;38.23;;;16.50;;
19830;SDS011;10076;52.008;4.708;2023-05-10T04:41:44;38.03;;;15.77;;
19830;SDS011;10076;52.008;4.708;2023-05-10T04:44:10;41.77;;;17.30;;
19830;SDS011;10076;52.008;4.708;2023-05-10T04:46:35;42.27;;;16.63;;
19830;SDS011;10076;52.008;4.708;2023-05-10T04:49:00;44.93;;;18.33;;
19830;SDS011;10076;52.008;4.708;2023-05-10T04:51:26;39.57;;;16.70;;
19830;SDS011;10076;52.008;4.708;2023-05-10T04:53:51;35.17;;;17.00;;
19830;SDS011;10076;52.008;4.708;2023-05-10T04:56:16;39.13;;;16.87;;
19830;SDS011;10076;52.008;4.708;2023-05-10T04:58:41;41.00;;;16.67;;
19830;SDS011;10076;52.008;4.708;2023-05-10T05:01:07;38.67;;;16.73;;
19830;SDS011;10076;52.008;4.708;2023-05-10T05:03:33;34.40;;;14.53;;
19830;SDS011;10076;52.008;4.708;2023-05-10T05:05:58;25.42;;;12.77;;
19830;SDS011;10076;52.008;4.708;2023-05-10T05:08:23;26.90;;;13.03;;
19830;SDS011;10076;52.008;4.708;2023-05-10T05:10:49;31.05;;;13.60;;
19830;SDS011;10076;52.008;4.708;2023-05-10T05:13:15;32.67;;;13.10;;
19830;SDS011;10076;52.008;4.708;2023-05-10T05:15:40;27.23;;;11.83;;
19830;SDS011;10076;52.008;4.708;2023-05-10T05:18:05;28.27;;;11.97;;
19830;SDS011;10076;52.008;4.708;2023-05-10T05:20:34;30.07;;;12.20;;
19830;SDS011;10076;52.008;4.708;2023-05-10T05:22:59;30.00;;;10.93;;
19830;SDS011;10076;52.008;4.708;2023-05-10T05:25:25;28.58;;;11.20;;
19830;SDS011;10076;52.008;4.708;2023-05-10T05:27:50;30.80;;;11.55;;
19830;SDS011;10076;52.008;4.708;2023-05-10T05:30:15;25.65;;;10.85;;
19830;SDS011;10076;52.008;4.708;2023-05-10T05:32:41;28.73;;;11.30;;
19830;SDS011;10076;52.008;4.708;2023-05-10T05:35:06;25.13;;;9.88;;
19830;SDS011;10076;52.008;4.708;2023-05-10T05:37:32;27.17;;;10.25;;
19830;SDS011;10076;52.008;4.708;2023-05-10T05:39:57;22.23;;;9.55;;
19830;SDS011;10076;52.008;4.708;2023-05-10T05:42:22;20.92;;;10.02;;
19830;SDS011;10076;52.008;4.708;2023-05-10T05:44:48;21.60;;;10.13;;
19830;SDS011;10076;52.008;4.708;2023-05-10T05:47:13;24.37;;;10.90;;
19830;SDS011;10076;52.008;4.708;2023-05-10T05:49:38;29.13;;;9.33;;
19830;SDS011;10076;52.008;4.708;2023-05-10T05:52:04;19.53;;;9.63;;
19830;SDS011;10076;52.008;4.708;2023-05-10T05:54:30;27.60;;;9.97;;
19830;SDS011;10076;52.008;4.708;2023-05-10T05:56:56;17.70;;;8.17;;
19830;SDS011;10076;52.008;4.708;2023-05-10T05:59:22;18.57;;;8.23;;
19830;SDS011;10076;52.008;4.708;2023-05-10T06:01:48;16.70;;;7.47;;
19830;SDS011;10076;52.008;4.708;2023-05-10T06:04:13;12.87;;;6.17;;
19830;SDS011;10076;52.008;4.708;2023-05-10T06:06:39;18.20;;;7.40;;
19830;SDS011;10076;52.008;4.708;2023-05-10T06:09:04;16.43;;;6.73;;
19830;SDS011;10076;52.008;4.708;2023-05-10T06:11:30;12.97;;;5.80;;
19830;SDS011;10076;52.008;4.708;2023-05-10T06:13:57;18.77;;;6.97;;
19830;SDS011;10076;52.008;4.708;2023-05-10T06:16:22;14.27;;;6.37;;
19830;SDS011;10076;52.008;4.708;2023-05-10T06:18:48;15.17;;;6.67;;
19830;SDS011;10076;52.008;4.708;2023-05-10T06:21:13;14.82;;;6.72;;
19830;SDS011;10076;52.008;4.708;2023-05-10T06:23:39;14.57;;;5.63;;
19830;SDS011;10076;52.008;4.708;2023-05-10T06:26:05;25.13;;;9.60;;
19830;SDS011;10076;52.008;4.708;2023-05-10T06:28:30;14.10;;;5.40;;
19830;SDS011;10076;52.008;4.708;2023-05-10T06:30:57;10.57;;;4.53;;
19830;SDS011;10076;52.008;4.708;2023-05-10T06:33:22;9.60;;;5.25;;
19830;SDS011;10076;52.008;4.708;2023-05-10T06:35:47;11.60;;;5.03;;
19830;SDS011;10076;52.008;4.708;2023-05-10T06:38:13;11.00;;;5.03;;
19830;SDS011;10076;52.008;4.708;2023-05-10T06:40:41;9.75;;;5.30;;
19830;SDS011;10076;52.008;4.708;2023-05-10T06:43:07;11.88;;;4.82;;
19830;SDS011;10076;52.008;4.708;2023-05-10T06:45:32;12.25;;;4.22;;
19830;SDS011;10076;52.008;4.708;2023-05-10T06:47:57;9.10;;;4.05;;
19830;SDS011;10076;52.008;4.708;2023-05-10T06:50:22;7.93;;;4.30;;
19830;SDS011;10076;52.008;4.708;2023-05-10T06:52:48;7.32;;;4.03;;
19830;SDS011;10076;52.008;4.708;2023-05-10T06:55:13;8.68;;;3.83;;
19830;SDS011;10076;52.008;4.708;2023-05-10T06:57:38;7.90;;;4.30;;
19830;SDS011;10076;52.008;4.708;2023-05-10T07:00:04;8.10;;;4.30;;
19830;SDS011;10076;52.008;4.708;2023-05-10T07:02:30;9.00;;;3.80;;
19830;SDS011;10076;52.008;4.708;2023-05-10T07:04:55;7.50;;;3.63;;
19830;SDS011;10076;52.008;4.708;2023-05-10T07:07:21;6.35;;;3.65;;
19830;SDS011;10076;52.008;4.708;2023-05-10T07:09:46;6.60;;;3.65;;
19830;SDS011;10076;52.008;4.708;2023-05-10T07:12:12;6.82;;;3.60;;
19830;SDS011;10076;52.008;4.708;2023-05-10T07:14:37;6.70;;;3.30;;
19830;SDS011;10076;52.008;4.708;2023-05-10T07:17:03;6.60;;;3.45;;
19830;SDS011;10076;52.008;4.708;2023-05-10T07:19:28;5.75;;;2.95;;
19830;SDS011;10076;52.008;4.708;2023-05-10T07:21:54;5.78;;;3.17;;
19830;SDS011;10076;52.008;4.708;2023-05-10T07:24:20;5.13;;;2.90;;
19830;SDS011;10076;52.008;4.708;2023-05-10T07:26:45;4.53;;;2.90;;
19830;SDS011;10076;52.008;4.708;2023-05-10T07:29:11;6.25;;;3.05;;
19830;SDS011;10076;52.008;4.708;2023-05-10T07:31:36;4.95;;;2.95;;
19830;SDS011;10076;52.008;4.708;2023-05-10T07:34:02;4.72;;;2.92;;
19830;SDS011;10076;52.008;4.708;2023-05-10T07:36:27;5.35;;;2.97;;
19830;SDS011;10076;52.008;4.708;2023-05-10T07:38:52;5.60;;;2.60;;
19830;SDS011;10076;52.008;4.708;2023-05-10T07:41:18;6.07;;;3.10;;
19830;SDS011;10076;52.008;4.708;2023-05-10T07:43:43;5.20;;;2.90;;
19830;SDS011;10076;52.008;4.708;2023-05-10T07:46:09;4.05;;;2.63;;
19830;SDS011;10076;52.008;4.708;2023-05-10T07:48:36;6.80;;;2.60;;
19830;SDS011;10076;52.008;4.708;2023-05-10T07:51:01;5.75;;;2.60;;
19830;SDS011;10076;52.008;4.708;2023-05-10T07:53:27;5.32;;;2.67;;
19830;SDS011;10076;52.008;4.708;2023-05-10T07:55:54;4.65;;;2.90;;
19830;SDS011;10076;52.008;4.708;2023-05-10T07:58:21;5.75;;;2.80;;
19830;SDS011;10076;52.008;4.708;2023-05-10T08:00:47;4.68;;;2.58;;
19830;SDS011;10076;52.008;4.708;2023-05-10T08:03:13;4.07;;;2.45;;
19830;SDS011;10076;52.008;4.708;2023-05-10T08:05:38;4.28;;;2.67;;
19830;SDS011;10076;52.008;4.708;2023-05-10T08:08:04;5.20;;;2.50;;
19830;SDS011;10076;52.008;4.708;2023-05-10T08:10:29;5.38;;;2.60;;
19830;SDS011;10076;52.008;4.708;2023-05-10T08:12:54;5.05;;;2.45;;
19830;SDS011;10076;52.008;4.708;2023-05-10T08:15:20;4.78;;;2.78;;
19830;SDS011;10076;52.008;4.708;2023-05-10T08:17:45;5.00;;;2.80;;
19830;SDS011;10076;52.008;4.708;2023-05-10T08:20:10;4.85;;;3.10;;
19830;SDS011;10076;52.008;4.708;2023-05-10T08:22:37;5.60;;;2.83;;
19830;SDS011;10076;52.008;4.708;2023-05-10T08:25:03;8.77;;;3.47;;
19830;SDS011;10076;52.008;4.708;2023-05-10T08:27:28;5.70;;;3.08;;
19830;SDS011;10076;52.008;4.708;2023-05-10T08:29:53;8.82;;;3.20;;
19830;SDS011;10076;52.008;4.708;2023-05-10T08:32:19;6.78;;;3.40;;
19830;SDS011;10076;52.008;4.708;2023-05-10T08:34:44;5.90;;;3.47;;
19830;SDS011;10076;52.008;4.708;2023-05-10T08:37:09;6.05;;;3.33;;
19830;SDS011;10076;52.008;4.708;2023-05-10T08:39:37;5.32;;;2.75;;
19830;SDS011;10076;52.008;4.708;2023-05-10T08:42:03;5.35;;;2.97;;
19830;SDS011;10076;52.008;4.708;2023-05-10T08:44:32;7.35;;;3.53;;
19830;SDS011;10076;52.008;4.708;2023-05-10T08:47:01;4.85;;;2.85;;
19830;SDS011;10076;52.008;4.708;2023-05-10T08:49:30;5.57;;;3.25;;
19830;SDS011;10076;52.008;4.708;2023-05-10T08:51:57;6.43;;;3.20;;
19830;SDS011;10076;52.008;4.708;2023-05-10T08:54:24;8.20;;;3.30;;
19830;SDS011;10076;52.008;4.708;2023-05-10T08:56:50;4.07;;;2.85;;
19830;SDS011;10076;52.008;4.708;2023-05-10T08:59:16;5.82;;;3.47;;
19830;SDS011;10076;52.008;4.708;2023-05-10T09:01:43;6.25;;;2.70;;
19830;SDS011;10076;52.008;4.708;2023-05-10T09:04:10;6.47;;;2.85;;
19830;SDS011;10076;52.008;4.708;2023-05-10T09:06:36;5.80;;;3.10;;
19830;SDS011;10076;52.008;4.708;2023-05-10T09:09:02;6.28;;;2.85;;
19830;SDS011;10076;52.008;4.708;2023-05-10T09:11:28;6.97;;;3.00;;
19830;SDS011;10076;52.008;4.708;2023-05-10T09:13:55;6.07;;;3.38;;
19830;SDS011;10076;52.008;4.708;2023-05-10T09:16:21;8.30;;;4.35;;
19830;SDS011;10076;52.008;4.708;2023-05-10T09:18:46;7.30;;;3.75;;
19830;SDS011;10076;52.008;4.708;2023-05-10T09:21:12;5.80;;;2.67;;
19830;SDS011;10076;52.008;4.708;2023-05-10T09:23:42;6.88;;;3.40;;
19830;SDS011;10076;52.008;4.708;2023-05-10T09:26:08;4.68;;;3.33;;
19830;SDS011;10076;52.008;4.708;2023-05-10T09:28:34;6.50;;;3.90;;
19830;SDS011;10076;52.008;4.708;2023-05-10T09:31:14;5.60;;;3.17;;
19830;SDS011;10076;52.008;4.708;2023-05-10T09:33:46;9.10;;;3.53;;
19830;SDS011;10076;52.008;4.708;2023-05-10T09:36:12;9.00;;;3.35;;
19830;SDS011;10076;52.008;4.708;2023-05-10T09:38:47;6.22;;;3.22;;
19830;SDS011;10076;52.008;4.708;2023-05-10T09:41:23;7.97;;;3.28;;
19830;SDS011;10076;52.008;4.708;2023-05-10T09:43:50;7.38;;;3.17;;
19830;SDS011;10076;52.008;4.708;2023-05-10T09:46:19;5.68;;;3.05;;
19830;SDS011;10076;52.008;4.708;2023-05-10T09:48:46;5.18;;;2.80;;
19830;SDS011;10076;52.008;4.708;2023-05-10T09:51:19;4.30;;;2.30;;
19830;SDS011;10076;52.008;4.708;2023-05-10T09:53:45;6.40;;;3.13;;
19830;SDS011;10076;52.008;4.708;2023-05-10T09:56:10;6.10;;;3.25;;
19830;SDS011;10076;52.008;4.708;2023-05-10T09:58:36;5.03;;;2.70;;
19830;SDS011;10076;52.008;4.708;2023-05-10T10:01:04;7.20;;;3.35;;
19830;SDS011;10076;52.008;4.708;2023-05-10T10:03:40;5.45;;;2.88;;
19830;SDS011;10076;52.008;4.708;2023-05-10T10:06:07;6.57;;;3.08;;
19830;SDS011;10076;52.008;4.708;2023-05-10T10:08:32;6.13;;;3.15;;
19830;SDS011;10076;52.008;4.708;2023-05-10T10:10:58;5.80;;;3.55;;
19830;SDS011;10076;52.008;4.708;2023-05-10T10:13:24;6.47;;;2.90;;
19830;SDS011;10076;52.008;4.708;2023-05-10T10:15:49;5.32;;;2.75;;
19830;SDS011;10076;52.008;4.708;2023-05-10T10:18:15;6.65;;;3.30;;
19830;SDS011;10076;52.008;4.708;2023-05-10T10:20:42;4.47;;;2.88;;
19830;SDS011;10076;52.008;4.708;2023-05-10T10:23:07;6.60;;;3.65;;
19830;SDS011;10076;52.008;4.708;2023-05-10T10:25:33;6.10;;;4.53;;
19830;SDS011;10076;52.008;4.708;2023-05-10T10:28:06;9.98;;;5.30;;
19830;SDS011;10076;52.008;4.708;2023-05-10T10:30:43;6.70;;;4.93;;
19830;SDS011;10076;52.008;4.708;2023-05-10T10:35:57;8.57;;;4.90;;
19830;SDS011;10076;52.008;4.708;2023-05-10T10:38:24;4.85;;;2.80;;
19830;SDS011;10076;52.008;4.708;2023-05-10T10:41:02;6.88;;;2.78;;
19830;SDS011;10076;52.008;4.708;2023-05-10T10:43:34;7.40;;;3.35;;
19830;SDS011;10076;52.008;4.708;2023-05-10T10:46:15;7.75;;;3.97;;
19830;SDS011;10076;52.008;4.708;2023-05-10T10:48:49;6.53;;;3.30;;
19830;SDS011;10076;52.008;4.708;2023-05-10T10:51:32;6.28;;;3.42;;
19830;SDS011;10076;52.008;4.708;2023-05-10T10:54:08;4.70;;;3.35;;
19830;SDS011;10076;52.008;4.708;2023-05-10T10:56:35;6.75;;;3.20;;
19830;SDS011;10076;52.008;4.708;2023-05-10T10:59:00;5.57;;;3.45;;
19830;SDS011;10076;52.008;4.708;2023-05-10T11:01:26;5.85;;;3.72;;
19830;SDS011;10076;52.008;4.708;2023-05-10T11:06:29;6.80;;;3.75;;
19830;SDS011;10076;52.008;4.708;2023-05-10T11:08:59;6.03;;;3.40;;
19830;SDS011;10076;52.008;4.708;2023-05-10T11:11:30;6.47;;;3.47;;
19830;SDS011;10076;52.008;4.708;2023-05-10T11:13:55;6.53;;;3.55;;
19830;SDS011;10076;52.008;4.708;2023-05-10T11:16:28;6.60;;;3.72;;
19830;SDS011;10076;52.008;4.708;2023-05-10T11:19:13;7.80;;;3.30;;
19830;SDS011;10076;52.008;4.708;2023-05-10T11:21:47;6.15;;;3.80;;
19830;SDS011;10076;52.008;4.708;2023-05-10T11:24:13;7.03;;;3.38;;
19830;SDS011;10076;52.008;4.708;2023-05-10T11:26:39;8.00;;;3.45;;
19830;SDS011;10076;52.008;4.708;2023-05-10T11:29:05;5.63;;;3.55;;
19830;SDS011;10076;52.008;4.708;2023-05-10T11:31:31;4.75;;;3.30;;
19830;SDS011;10076;52.008;4.708;2023-05-10T11:33:57;6.25;;;3.22;;
19830;SDS011;10076;52.008;4.708;2023-05-10T11:36:24;4.57;;;3.03;;
19830;SDS011;10076;52.008;4.708;2023-05-10T11:38:51;6.10;;;3.63;;
19830;SDS011;10076;52.008;4.708;2023-05-10T11:41:18;5.35;;;3.15;;
19830;SDS011;10076;52.008;4.708;2023-05-10T11:43:46;5.53;;;3.03;;
19830;SDS011;10076;52.008;4.708;2023-05-10T11:46:14;5.78;;;3.35;;
19830;SDS011;10076;52.008;4.708;2023-05-10T11:48:40;4.80;;;2.95;;
19830;SDS011;10076;52.008;4.708;2023-05-10T11:51:06;7.15;;;3.50;;
19830;SDS011;10076;52.008;4.708;2023-05-10T11:53:33;5.40;;;3.22;;
19830;SDS011;10076;52.008;4.708;2023-05-10T11:56:05;5.15;;;3.00;;
19830;SDS011;10076;52.008;4.708;2023-05-10T11:58:31;5.95;;;3.72;;
19830;SDS011;10076;52.008;4.708;2023-05-10T12:00:58;5.28;;;3.13;;
19830;SDS011;10076;52.008;4.708;2023-05-10T12:03:24;5.72;;;3.75;;
19830;SDS011;10076;52.008;4.708;2023-05-10T12:05:49;7.53;;;3.60;;
19830;SDS011;10076;52.008;4.708;2023-05-10T12:08:15;7.72;;;3.55;;
19830;SDS011;10076;52.008;4.708;2023-05-10T12:10:46;6.50;;;3.60;;
19830;SDS011;10076;52.008;4.708;2023-05-10T12:13:12;5.68;;;3.47;;
19830;SDS011;10076;52.008;4.708;2023-05-10T12:15:39;7.30;;;4.45;;
19830;SDS011;10076;52.008;4.708;2023-05-10T12:18:04;6.00;;;4.00;;
19830;SDS011;10076;52.008;4.708;2023-05-10T12:20:30;7.60;;;4.13;;
19830;SDS011;10076;52.008;4.708;2023-05-10T12:22:56;7.50;;;4.18;;
19830;SDS011;10076;52.008;4.708;2023-05-10T12:25:23;6.47;;;4.15;;
19830;SDS011;10076;52.008;4.708;2023-05-10T12:27:55;5.13;;;3.22;;
19830;SDS011;10076;52.008;4.708;2023-05-10T12:30:25;8.95;;;4.47;;
19830;SDS011;10076;52.008;4.708;2023-05-10T12:32:51;8.75;;;4.43;;
19830;SDS011;10076;52.008;4.708;2023-05-10T12:35:17;6.30;;;3.80;;
19830;SDS011;10076;52.008;4.708;2023-05-10T12:37:47;5.53;;;3.60;;
19830;SDS011;10076;52.008;4.708;2023-05-10T12:40:12;9.23;;;4.53;;
19830;SDS011;10076;52.008;4.708;2023-05-10T12:42:38;7.40;;;3.83;;
19830;SDS011;10076;52.008;4.708;2023-05-10T12:45:05;6.57;;;3.45;;
19830;SDS011;10076;52.008;4.708;2023-05-10T12:47:31;6.90;;;3.90;;
19830;SDS011;10076;52.008;4.708;2023-05-10T12:49:57;6.50;;;3.67;;
19830;SDS011;10076;52.008;4.708;2023-05-10T12:52:24;4.38;;;3.17;;
19830;SDS011;10076;52.008;4.708;2023-05-10T12:54:49;4.57;;;2.80;;
19830;SDS011;10076;52.008;4.708;2023-05-10T12:57:15;4.85;;;3.15;;
19830;SDS011;10076;52.008;4.708;2023-05-10T12:59:40;6.45;;;3.25;;
19830;SDS011;10076;52.008;4.708;2023-05-10T13:02:06;4.75;;;2.58;;
19830;SDS011;10076;52.008;4.708;2023-05-10T13:04:31;4.95;;;2.63;;
19830;SDS011;10076;52.008;4.708;2023-05-10T13:06:57;8.13;;;3.30;;
19830;SDS011;10076;52.008;4.708;2023-05-10T13:09:24;7.32;;;3.25;;
19830;SDS011;10076;52.008;4.708;2023-05-10T13:11:50;8.05;;;3.58;;
19830;SDS011;10076;52.008;4.708;2023-05-10T13:14:16;4.78;;;3.03;;
19830;SDS011;10076;52.008;4.708;2023-05-10T13:16:41;6.00;;;3.35;;
19830;SDS011;10076;52.008;4.708;2023-05-10T13:19:06;6.45;;;3.20;;
19830;SDS011;10076;52.008;4.708;2023-05-10T13:21:32;7.68;;;3.15;;
19830;SDS011;10076;52.008;4.708;2023-05-10T13:23:57;6.22;;;3.22;;
19830;SDS011;10076;52.008;4.708;2023-05-10T13:26:23;7.38;;;3.20;;
19830;SDS011;10076;52.008;4.708;2023-05-10T13:28:48;10.05;;;3.63;;
19830;SDS011;10076;52.008;4.708;2023-05-10T13:31:14;6.88;;;2.95;;
19830;SDS011;10076;52.008;4.708;2023-05-10T13:33:39;7.03;;;3.65;;
19830;SDS011;10076;52.008;4.708;2023-05-10T13:36:05;7.93;;;3.38;;
19830;SDS011;10076;52.008;4.708;2023-05-10T13:38:31;8.45;;;4.03;;
19830;SDS011;10076;52.008;4.708;2023-05-10T13:40:56;5.05;;;3.58;;
19830;SDS011;10076;52.008;4.708;2023-05-10T13:43:21;7.65;;;4.07;;
19830;SDS011;10076;52.008;4.708;2023-05-10T13:45:47;9.70;;;3.97;;
19830;SDS011;10076;52.008;4.708;2023-05-10T13:48:12;8.23;;;4.15;;
19830;SDS011;10076;52.008;4.708;2023-05-10T13:50:37;7.22;;;3.65;;
19830;SDS011;10076;52.008;4.708;2023-05-10T13:53:03;7.63;;;3.70;;
19830;SDS011;10076;52.008;4.708;2023-05-10T13:55:28;5.95;;;3.72;;
19830;SDS011;10076;52.008;4.708;2023-05-10T13:57:53;8.40;;;3.60;;
19830;SDS011;10076;52.008;4.708;2023-05-10T14:00:19;5.03;;;3.03;;
19830;SDS011;10076;52.008;4.708;2023-05-10T14:02:44;7.07;;;3.38;;
19830;SDS011;10076;52.008;4.708;2023-05-10T14:05:09;6.70;;;3.17;;
19830;SDS011;10076;52.008;4.708;2023-05-10T14:07:35;6.13;;;2.85;;
19830;SDS011;10076;52.008;4.708;2023-05-10T14:10:00;5.43;;;3.00;;
19830;SDS011;10076;52.008;4.708;2023-05-10T14:12:26;4.63;;;2.75;;
19830;SDS011;10076;52.008;4.708;2023-05-10T14:14:52;7.30;;;3.50;;
19830;SDS011;10076;52.008;4.708;2023-05-10T14:17:17;4.45;;;2.75;;
19830;SDS011;10076;52.008;4.708;2023-05-10T14:19:42;5.40;;;2.53;;
19830;SDS011;10076;52.008;4.708;2023-05-10T14:22:08;6.03;;;3.17;;
19830;SDS011;10076;52.008;4.708;2023-05-10T14:24:33;3.45;;;2.60;;
19830;SDS011;10076;52.008;4.708;2023-05-10T14:26:58;7.15;;;3.08;;
19830;SDS011;10076;52.008;4.708;2023-05-10T14:29:25;4.32;;;2.47;;
19830;SDS011;10076;52.008;4.708;2023-05-10T14:31:50;7.22;;;2.97;;
19830;SDS011;10076;52.008;4.708;2023-05-10T14:34:15;5.63;;;2.60;;
19830;SDS011;10076;52.008;4.708;2023-05-10T14:36:41;3.63;;;2.53;;
19830;SDS011;10076;52.008;4.708;2023-05-10T14:39:06;6.55;;;2.88;;
19830;SDS011;10076;52.008;4.708;2023-05-10T14:41:31;4.13;;;2.58;;
19830;SDS011;10076;52.008;4.708;2023-05-10T14:43:57;5.18;;;2.50;;
19830;SDS011;10076;52.008;4.708;2023-05-10T14:46:22;4.18;;;2.67;;
19830;SDS011;10076;52.008;4.708;2023-05-10T14:48:47;7.57;;;2.58;;
19830;SDS011;10076;52.008;4.708;2023-05-10T14:51:12;4.82;;;2.40;;
19830;SDS011;10076;52.008;4.708;2023-05-10T14:53:38;4.80;;;2.17;;
19830;SDS011;10076;52.008;4.708;2023-05-10T14:56:03;4.15;;;2.22;;
19830;SDS011;10076;52.008;4.708;2023-05-10T14:58:29;5.72;;;2.55;;